sensor_id;sensor_type;location;lat;lon;timestamp;P1;durP1;ratioP1;P2;durP2;ratioP2
75512;SDS011;64090;49.770;18.760;2023-03-01T00:02:38;90.70;;;46.60;;
75512;SDS011;64090;49.770;18.760;2023-03-01T00:05:45;98.60;;;45.10;;
75512;SDS011;64090;49.770;18.760;2023-03-01T00:08:49;85.20;;;37.00;;
75512;SDS011;64090;49.770;18.760;2023-03-01T00:11:52;85.20;;;42.00;;
75512;SDS011;64090;49.770;18.760;2023-03-01T00:14:55;58.70;;;32.10;;
75512;SDS011;64090;49.770;18.760;2023-03-01T00:17:58;66.40;;;30.10;;
75512;SDS011;64090;49.770;18.760;2023-03-01T00:21:02;66.10;;;31.70;;
75512;SDS011;64090;49.770;18.760;2023-03-01T00:24:06;61.30;;;28.00;;
75512;SDS011;64090;49.770;18.760;2023-03-01T00:27:09;47.40;;;26.30;;
75512;SDS011;64090;49.770;18.760;2023-03-01T00:30:12;68.10;;;31.30;;
75512;SDS011;64090;49.770;18.760;2023-03-01T00:33:15;61.40;;;31.70;;
75512;SDS011;64090;49.770;18.760;2023-03-01T00:36:19;55.30;;;25.40;;
75512;SDS011;64090;49.770;18.760;2023-03-01T00:39:22;50.20;;;27.30;;
75512;SDS011;64090;49.770;18.760;2023-03-01T00:42:25;81.50;;;40.70;;
75512;SDS011;64090;49.770;18.760;2023-03-01T00:45:28;86.80;;;41.70;;
75512;SDS011;64090;49.770;18.760;2023-03-01T00:48:33;89.70;;;44.40;;
75512;SDS011;64090;49.770;18.760;2023-03-01T00:51:37;88.50;;;43.60;;
75512;SDS011;64090;49.770;18.760;2023-03-01T00:54:41;78.60;;;36.20;;
75512;SDS011;64090;49.770;18.760;2023-03-01T00:57:44;75.70;;;40.40;;
75512;SDS011;64090;49.770;18.760;2023-03-01T01:00:47;62.80;;;28.60;;
75512;SDS011;64090;49.770;18.760;2023-03-01T01:03:52;55.80;;;29.80;;
75512;SDS011;64090;49.770;18.760;2023-03-01T01:06:57;53.90;;;27.50;;
75512;SDS011;64090;49.770;18.760;2023-03-01T01:10:00;55.00;;;27.80;;
75512;SDS011;64090;49.770;18.760;2023-03-01T01:13:03;50.00;;;27.00;;
75512;SDS011;64090;49.770;18.760;2023-03-01T01:16:07;57.50;;;27.80;;
75512;SDS011;64090;49.770;18.760;2023-03-01T01:19:11;51.50;;;30.90;;
75512;SDS011;64090;49.770;18.760;2023-03-01T01:22:14;57.20;;;29.30;;
75512;SDS011;64090;49.770;18.760;2023-03-01T01:25:17;42.30;;;23.20;;
75512;SDS011;64090;49.770;18.760;2023-03-01T01:28:20;42.20;;;22.00;;
75512;SDS011;64090;49.770;18.760;2023-03-01T01:31:23;43.60;;;22.30;;
75512;SDS011;64090;49.770;18.760;2023-03-01T01:34:27;48.00;;;23.60;;
75512;SDS011;64090;49.770;18.760;2023-03-01T01:37:30;62.40;;;32.40;;
75512;SDS011;64090;49.770;18.760;2023-03-01T01:40:42;56.90;;;29.50;;
75512;SDS011;64090;49.770;18.760;2023-03-01T01:43:47;56.90;;;30.10;;
75512;SDS011;64090;49.770;18.760;2023-03-01T01:47:02;51.20;;;32.10;;
75512;SDS011;64090;49.770;18.760;2023-03-01T01:50:08;60.70;;;28.40;;
75512;SDS011;64090;49.770;18.760;2023-03-01T01:53:18;59.60;;;29.80;;
75512;SDS011;64090;49.770;18.760;2023-03-01T01:56:23;54.70;;;27.10;;
75512;SDS011;64090;49.770;18.760;2023-03-01T01:59:28;46.40;;;25.70;;
75512;SDS011;64090;49.770;18.760;2023-03-01T02:02:33;47.30;;;24.50;;
75512;SDS011;64090;49.770;18.760;2023-03-01T02:05:53;47.10;;;28.60;;
75512;SDS011;64090;49.770;18.760;2023-03-01T02:09:04;42.40;;;23.70;;
75512;SDS011;64090;49.770;18.760;2023-03-01T02:12:14;41.40;;;23.90;;
75512;SDS011;64090;49.770;18.760;2023-03-01T02:15:20;49.40;;;24.80;;
75512;SDS011;64090;49.770;18.760;2023-03-01T02:18:23;55.30;;;28.70;;
75512;SDS011;64090;49.770;18.760;2023-03-01T02:24:57;31.50;;;15.80;;
75512;SDS011;64090;49.770;18.760;2023-03-01T02:31:20;77.80;;;37.40;;
75512;SDS011;64090;49.770;18.760;2023-03-01T02:34:42;79.50;;;38.80;;
75512;SDS011;64090;49.770;18.760;2023-03-01T02:37:45;77.50;;;37.60;;
75512;SDS011;64090;49.770;18.760;2023-03-01T02:40:50;74.60;;;35.00;;
75512;SDS011;64090;49.770;18.760;2023-03-01T02:43:54;66.30;;;33.50;;
75512;SDS011;64090;49.770;18.760;2023-03-01T02:46:58;60.30;;;31.90;;
75512;SDS011;64090;49.770;18.760;2023-03-01T02:53:45;62.00;;;31.30;;
75512;SDS011;64090;49.770;18.760;2023-03-01T02:56:59;54.70;;;29.90;;
75512;SDS011;64090;49.770;18.760;2023-03-01T03:00:07;57.90;;;27.70;;
75512;SDS011;64090;49.770;18.760;2023-03-01T03:03:22;50.70;;;27.50;;
75512;SDS011;64090;49.770;18.760;2023-03-01T03:06:25;64.30;;;32.10;;
75512;SDS011;64090;49.770;18.760;2023-03-01T03:09:28;57.10;;;30.20;;
75512;SDS011;64090;49.770;18.760;2023-03-01T03:12:31;60.20;;;28.90;;
75512;SDS011;64090;49.770;18.760;2023-03-01T03:15:34;58.50;;;29.60;;
75512;SDS011;64090;49.770;18.760;2023-03-01T03:18:38;57.60;;;30.60;;
75512;SDS011;64090;49.770;18.760;2023-03-01T03:21:41;50.00;;;23.20;;
75512;SDS011;64090;49.770;18.760;2023-03-01T03:24:44;50.70;;;27.20;;
75512;SDS011;64090;49.770;18.760;2023-03-01T03:27:48;36.80;;;21.60;;
75512;SDS011;64090;49.770;18.760;2023-03-01T03:30:52;62.50;;;30.70;;
75512;SDS011;64090;49.770;18.760;2023-03-01T03:33:55;61.70;;;30.00;;
75512;SDS011;64090;49.770;18.760;2023-03-01T03:36:59;52.60;;;29.30;;
75512;SDS011;64090;49.770;18.760;2023-03-01T03:40:02;55.30;;;31.10;;
75512;SDS011;64090;49.770;18.760;2023-03-01T03:43:07;58.60;;;30.80;;
75512;SDS011;64090;49.770;18.760;2023-03-01T03:46:12;63.80;;;35.30;;
75512;SDS011;64090;49.770;18.760;2023-03-01T03:49:15;67.00;;;35.10;;
75512;SDS011;64090;49.770;18.760;2023-03-01T03:52:18;81.80;;;37.50;;
75512;SDS011;64090;49.770;18.760;2023-03-01T03:55:21;75.10;;;37.00;;
75512;SDS011;64090;49.770;18.760;2023-03-01T03:58:24;75.30;;;40.10;;
75512;SDS011;64090;49.770;18.760;2023-03-01T04:01:27;64.00;;;37.00;;
75512;SDS011;64090;49.770;18.760;2023-03-01T04:04:30;77.70;;;38.30;;
75512;SDS011;64090;49.770;18.760;2023-03-01T04:07:34;69.00;;;37.60;;
75512;SDS011;64090;49.770;18.760;2023-03-01T04:10:39;75.20;;;38.50;;
75512;SDS011;64090;49.770;18.760;2023-03-01T04:13:43;76.60;;;38.90;;
75512;SDS011;64090;49.770;18.760;2023-03-01T04:16:46;72.90;;;37.30;;
75512;SDS011;64090;49.770;18.760;2023-03-01T04:19:49;74.40;;;38.70;;
75512;SDS011;64090;49.770;18.760;2023-03-01T04:22:52;75.50;;;39.30;;
75512;SDS011;64090;49.770;18.760;2023-03-01T04:26:13;74.40;;;38.40;;
75512;SDS011;64090;49.770;18.760;2023-03-01T04:29:15;80.40;;;38.80;;
75512;SDS011;64090;49.770;18.760;2023-03-01T04:32:18;68.70;;;36.10;;
75512;SDS011;64090;49.770;18.760;2023-03-01T04:35:21;77.00;;;39.20;;
75512;SDS011;64090;49.770;18.760;2023-03-01T04:38:24;71.10;;;37.00;;
75512;SDS011;64090;49.770;18.760;2023-03-01T04:41:27;72.20;;;42.90;;
75512;SDS011;64090;49.770;18.760;2023-03-01T04:44:31;63.30;;;35.20;;
75512;SDS011;64090;49.770;18.760;2023-03-01T04:47:34;62.80;;;34.90;;
75512;SDS011;64090;49.770;18.760;2023-03-01T04:50:40;65.10;;;33.80;;
75512;SDS011;64090;49.770;18.760;2023-03-01T04:53:43;60.50;;;36.50;;
75512;SDS011;64090;49.770;18.760;2023-03-01T04:56:47;50.80;;;30.30;;
75512;SDS011;64090;49.770;18.760;2023-03-01T04:59:49;53.20;;;27.40;;
75512;SDS011;64090;49.770;18.760;2023-03-01T05:06:00;43.90;;;22.80;;
75512;SDS011;64090;49.770;18.760;2023-03-01T05:09:03;37.90;;;21.50;;
75512;SDS011;64090;49.770;18.760;2023-03-01T05:12:06;39.60;;;19.00;;
75512;SDS011;64090;49.770;18.760;2023-03-01T05:15:09;46.20;;;23.70;;
75512;SDS011;64090;49.770;18.760;2023-03-01T05:18:13;39.00;;;20.20;;
75512;SDS011;64090;49.770;18.760;2023-03-01T05:21:15;45.90;;;24.70;;
75512;SDS011;64090;49.770;18.760;2023-03-01T05:24:19;51.80;;;27.90;;
75512;SDS011;64090;49.770;18.760;2023-03-01T05:27:21;55.20;;;30.00;;
75512;SDS011;64090;49.770;18.760;2023-03-01T05:30:26;50.40;;;29.20;;
75512;SDS011;64090;49.770;18.760;2023-03-01T05:33:29;52.40;;;26.70;;
75512;SDS011;64090;49.770;18.760;2023-03-01T05:36:32;49.50;;;26.20;;
75512;SDS011;64090;49.770;18.760;2023-03-01T05:39:35;47.80;;;25.30;;
75512;SDS011;64090;49.770;18.760;2023-03-01T05:42:38;45.30;;;22.70;;
75512;SDS011;64090;49.770;18.760;2023-03-01T05:45:42;60.10;;;30.00;;
75512;SDS011;64090;49.770;18.760;2023-03-01T05:48:45;58.00;;;29.40;;
75512;SDS011;64090;49.770;18.760;2023-03-01T05:51:50;54.30;;;26.50;;
75512;SDS011;64090;49.770;18.760;2023-03-01T05:54:54;54.70;;;27.30;;
75512;SDS011;64090;49.770;18.760;2023-03-01T05:57:58;58.50;;;30.10;;
75512;SDS011;64090;49.770;18.760;2023-03-01T06:01:02;51.60;;;28.10;;
75512;SDS011;64090;49.770;18.760;2023-03-01T06:04:05;49.90;;;26.20;;
75512;SDS011;64090;49.770;18.760;2023-03-01T06:07:08;53.80;;;28.10;;
75512;SDS011;64090;49.770;18.760;2023-03-01T06:10:11;52.50;;;25.00;;
75512;SDS011;64090;49.770;18.760;2023-03-01T06:13:14;51.80;;;30.10;;
75512;SDS011;64090;49.770;18.760;2023-03-01T06:16:17;50.20;;;25.30;;
75512;SDS011;64090;49.770;18.760;2023-03-01T06:19:20;46.20;;;28.60;;
75512;SDS011;64090;49.770;18.760;2023-03-01T06:22:23;48.40;;;28.00;;
75512;SDS011;64090;49.770;18.760;2023-03-01T06:25:27;46.70;;;26.90;;
75512;SDS011;64090;49.770;18.760;2023-03-01T06:28:30;49.50;;;25.60;;
75512;SDS011;64090;49.770;18.760;2023-03-01T06:31:33;40.10;;;24.30;;
75512;SDS011;64090;49.770;18.760;2023-03-01T06:34:36;40.90;;;22.40;;
75512;SDS011;64090;49.770;18.760;2023-03-01T06:37:39;44.60;;;24.10;;
75512;SDS011;64090;49.770;18.760;2023-03-01T06:40:43;33.80;;;15.30;;
75512;SDS011;64090;49.770;18.760;2023-03-01T06:43:46;34.10;;;18.60;;
75512;SDS011;64090;49.770;18.760;2023-03-01T06:47:27;41.90;;;21.80;;
75512;SDS011;64090;49.770;18.760;2023-03-01T06:51:12;56.80;;;30.10;;
75512;SDS011;64090;49.770;18.760;2023-03-01T06:55:11;65.60;;;32.20;;
75512;SDS011;64090;49.770;18.760;2023-03-01T06:59:06;66.70;;;37.20;;
75512;SDS011;64090;49.770;18.760;2023-03-01T07:02:56;68.80;;;33.70;;
75512;SDS011;64090;49.770;18.760;2023-03-01T07:06:44;45.10;;;21.50;;
75512;SDS011;64090;49.770;18.760;2023-03-01T07:10:30;79.70;;;40.10;;
75512;SDS011;64090;49.770;18.760;2023-03-01T07:14:24;65.50;;;35.60;;
75512;SDS011;64090;49.770;18.760;2023-03-01T07:18:32;37.30;;;15.60;;
75512;SDS011;64090;49.770;18.760;2023-03-01T07:22:48;56.90;;;26.60;;
75512;SDS011;64090;49.770;18.760;2023-03-01T07:26:56;90.00;;;48.30;;
75512;SDS011;64090;49.770;18.760;2023-03-01T07:31:06;53.20;;;23.90;;
75512;SDS011;64090;49.770;18.760;2023-03-01T07:35:15;31.80;;;15.00;;
75512;SDS011;64090;49.770;18.760;2023-03-01T07:39:24;38.70;;;19.00;;
75512;SDS011;64090;49.770;18.760;2023-03-01T07:43:25;53.10;;;27.50;;
75512;SDS011;64090;49.770;18.760;2023-03-01T07:47:11;73.00;;;34.60;;
75512;SDS011;64090;49.770;18.760;2023-03-01T07:51:05;71.00;;;32.50;;
75512;SDS011;64090;49.770;18.760;2023-03-01T07:54:48;76.90;;;42.00;;
75512;SDS011;64090;49.770;18.760;2023-03-01T07:58:48;73.90;;;37.50;;
75512;SDS011;64090;49.770;18.760;2023-03-01T08:02:36;76.40;;;39.60;;
75512;SDS011;64090;49.770;18.760;2023-03-01T08:06:15;77.30;;;40.00;;
75512;SDS011;64090;49.770;18.760;2023-03-01T08:09:57;77.10;;;45.40;;
75512;SDS011;64090;49.770;18.760;2023-03-01T08:13:43;77.70;;;42.10;;
75512;SDS011;64090;49.770;18.760;2023-03-01T08:17:53;68.90;;;34.40;;
75512;SDS011;64090;49.770;18.760;2023-03-01T08:21:40;60.10;;;29.30;;
75512;SDS011;64090;49.770;18.760;2023-03-01T08:25:27;69.70;;;36.80;;
75512;SDS011;64090;49.770;18.760;2023-03-01T08:29:14;41.70;;;21.50;;
75512;SDS011;64090;49.770;18.760;2023-03-01T08:37:07;56.70;;;30.80;;
75512;SDS011;64090;49.770;18.760;2023-03-01T08:40:53;74.00;;;39.20;;
75512;SDS011;64090;49.770;18.760;2023-03-01T08:44:40;63.30;;;34.50;;
75512;SDS011;64090;49.770;18.760;2023-03-01T08:48:28;64.00;;;34.30;;
75512;SDS011;64090;49.770;18.760;2023-03-01T08:52:14;50.40;;;27.70;;
75512;SDS011;64090;49.770;18.760;2023-03-01T08:56:05;55.20;;;27.90;;
75512;SDS011;64090;49.770;18.760;2023-03-01T09:00:10;45.40;;;22.40;;
75512;SDS011;64090;49.770;18.760;2023-03-01T09:03:58;54.20;;;30.60;;
75512;SDS011;64090;49.770;18.760;2023-03-01T09:07:32;46.00;;;24.30;;
75512;SDS011;64090;49.770;18.760;2023-03-01T09:11:27;48.40;;;28.20;;
75512;SDS011;64090;49.770;18.760;2023-03-01T09:15:01;44.10;;;25.20;;
75512;SDS011;64090;49.770;18.760;2023-03-01T09:18:49;49.20;;;26.60;;
75512;SDS011;64090;49.770;18.760;2023-03-01T09:22:35;43.90;;;25.00;;
75512;SDS011;64090;49.770;18.760;2023-03-01T09:26:23;40.40;;;24.90;;
75512;SDS011;64090;49.770;18.760;2023-03-01T09:30:10;44.10;;;26.10;;
75512;SDS011;64090;49.770;18.760;2023-03-01T09:33:56;46.70;;;26.30;;
75512;SDS011;64090;49.770;18.760;2023-03-01T09:37:43;41.30;;;24.10;;
75512;SDS011;64090;49.770;18.760;2023-03-01T09:41:50;52.10;;;29.60;;
75512;SDS011;64090;49.770;18.760;2023-03-01T09:45:37;53.20;;;31.10;;
75512;SDS011;64090;49.770;18.760;2023-03-01T09:49:29;51.80;;;28.70;;
75512;SDS011;64090;49.770;18.760;2023-03-01T09:53:18;28.40;;;13.30;;
75512;SDS011;64090;49.770;18.760;2023-03-01T09:57:06;22.40;;;11.10;;
75512;SDS011;64090;49.770;18.760;2023-03-01T10:01:16;33.90;;;18.90;;
75512;SDS011;64090;49.770;18.760;2023-03-01T10:05:05;47.50;;;27.30;;
75512;SDS011;64090;49.770;18.760;2023-03-01T10:08:53;45.20;;;25.90;;
75512;SDS011;64090;49.770;18.760;2023-03-01T10:12:39;49.50;;;28.50;;
75512;SDS011;64090;49.770;18.760;2023-03-01T10:16:14;53.70;;;29.10;;
75512;SDS011;64090;49.770;18.760;2023-03-01T10:20:17;48.00;;;29.20;;
75512;SDS011;64090;49.770;18.760;2023-03-01T10:23:45;50.90;;;28.80;;
75512;SDS011;64090;49.770;18.760;2023-03-01T10:27:41;46.00;;;28.00;;
75512;SDS011;64090;49.770;18.760;2023-03-01T10:31:26;46.30;;;27.40;;
75512;SDS011;64090;49.770;18.760;2023-03-01T10:35:19;53.00;;;30.50;;
75512;SDS011;64090;49.770;18.760;2023-03-01T10:39:13;51.60;;;30.10;;
75512;SDS011;64090;49.770;18.760;2023-03-01T10:43:14;50.50;;;30.00;;
75512;SDS011;64090;49.770;18.760;2023-03-01T10:46:50;47.40;;;28.60;;
75512;SDS011;64090;49.770;18.760;2023-03-01T10:51:05;35.60;;;22.20;;
75512;SDS011;64090;49.770;18.760;2023-03-01T10:55:36;40.10;;;23.90;;
75512;SDS011;64090;49.770;18.760;2023-03-01T11:00:24;35.20;;;21.60;;
75512;SDS011;64090;49.770;18.760;2023-03-01T11:07:51;32.10;;;18.80;;
75512;SDS011;64090;49.770;18.760;2023-03-01T11:11:40;33.80;;;18.70;;
75512;SDS011;64090;49.770;18.760;2023-03-01T11:16:04;25.40;;;16.40;;
75512;SDS011;64090;49.770;18.760;2023-03-01T11:19:31;30.40;;;19.90;;
75512;SDS011;64090;49.770;18.760;2023-03-01T11:23:15;32.40;;;19.60;;
75512;SDS011;64090;49.770;18.760;2023-03-01T11:27:33;36.90;;;20.40;;
75512;SDS011;64090;49.770;18.760;2023-03-01T11:31:00;38.60;;;24.40;;
75512;SDS011;64090;49.770;18.760;2023-03-01T11:41:34;37.30;;;22.20;;
75512;SDS011;64090;49.770;18.760;2023-03-01T11:44:58;32.10;;;20.70;;
75512;SDS011;64090;49.770;18.760;2023-03-01T11:55:44;32.40;;;20.30;;
75512;SDS011;64090;49.770;18.760;2023-03-01T12:11:12;28.00;;;17.70;;
75512;SDS011;64090;49.770;18.760;2023-03-01T12:15:27;28.30;;;18.30;;
75512;SDS011;64090;49.770;18.760;2023-03-01T12:19:02;27.20;;;17.10;;
75512;SDS011;64090;49.770;18.760;2023-03-01T12:26:55;23.90;;;15.50;;
75512;SDS011;64090;49.770;18.760;2023-03-01T12:30:57;19.30;;;12.50;;
75512;SDS011;64090;49.770;18.760;2023-03-01T12:39:16;20.00;;;13.70;;
75512;SDS011;64090;49.770;18.760;2023-03-01T12:43:11;23.00;;;15.10;;
75512;SDS011;64090;49.770;18.760;2023-03-01T12:51:14;26.80;;;17.80;;
75512;SDS011;64090;49.770;18.760;2023-03-01T12:55:24;19.40;;;12.70;;
75512;SDS011;64090;49.770;18.760;2023-03-01T12:59:36;24.50;;;15.50;;
75512;SDS011;64090;49.770;18.760;2023-03-01T13:11:42;21.60;;;12.80;;
75512;SDS011;64090;49.770;18.760;2023-03-01T13:15:26;20.80;;;14.00;;
75512;SDS011;64090;49.770;18.760;2023-03-01T13:19:16;20.80;;;13.20;;
75512;SDS011;64090;49.770;18.760;2023-03-01T13:23:25;20.50;;;12.90;;
75512;SDS011;64090;49.770;18.760;2023-03-01T13:30:46;21.40;;;14.60;;
75512;SDS011;64090;49.770;18.760;2023-03-01T13:34:45;20.80;;;13.00;;
75512;SDS011;64090;49.770;18.760;2023-03-01T13:41:50;22.30;;;14.80;;
75512;SDS011;64090;49.770;18.760;2023-03-01T13:45:41;20.60;;;13.50;;
75512;SDS011;64090;49.770;18.760;2023-03-01T13:49:16;23.20;;;14.90;;
75512;SDS011;64090;49.770;18.760;2023-03-01T13:53:14;18.80;;;12.40;;
75512;SDS011;64090;49.770;18.760;2023-03-01T13:56:23;20.80;;;11.40;;
75512;SDS011;64090;49.770;18.760;2023-03-01T14:03:52;19.30;;;12.80;;
75512;SDS011;64090;49.770;18.760;2023-03-01T14:07:11;19.30;;;13.20;;
75512;SDS011;64090;49.770;18.760;2023-03-01T14:10:35;20.20;;;12.60;;
75512;SDS011;64090;49.770;18.760;2023-03-01T14:18:26;20.60;;;12.60;;
75512;SDS011;64090;49.770;18.760;2023-03-01T14:25:54;16.40;;;12.10;;
75512;SDS011;64090;49.770;18.760;2023-03-01T14:32:30;19.90;;;12.70;;
75512;SDS011;64090;49.770;18.760;2023-03-01T14:35:35;19.60;;;13.30;;
75512;SDS011;64090;49.770;18.760;2023-03-01T14:38:42;18.70;;;10.40;;
75512;SDS011;64090;49.770;18.760;2023-03-01T14:41:49;21.80;;;12.80;;
75512;SDS011;64090;49.770;18.760;2023-03-01T14:45:15;19.90;;;11.90;;
75512;SDS011;64090;49.770;18.760;2023-03-01T14:48:42;23.80;;;13.30;;
75512;SDS011;64090;49.770;18.760;2023-03-01T14:52:04;23.30;;;14.10;;
75512;SDS011;64090;49.770;18.760;2023-03-01T14:55:37;26.50;;;15.80;;
75512;SDS011;64090;49.770;18.760;2023-03-01T14:59:25;20.60;;;13.10;;
75512;SDS011;64090;49.770;18.760;2023-03-01T15:07:16;22.60;;;12.30;;
75512;SDS011;64090;49.770;18.760;2023-03-01T15:11:22;21.70;;;12.70;;
75512;SDS011;64090;49.770;18.760;2023-03-01T15:19:07;23.40;;;13.60;;
75512;SDS011;64090;49.770;18.760;2023-03-01T15:22:56;20.70;;;12.50;;
75512;SDS011;64090;49.770;18.760;2023-03-01T15:26:43;25.10;;;15.40;;
75512;SDS011;64090;49.770;18.760;2023-03-01T15:30:33;22.40;;;13.40;;
75512;SDS011;64090;49.770;18.760;2023-03-01T15:34:21;26.50;;;15.80;;
75512;SDS011;64090;49.770;18.760;2023-03-01T15:38:25;25.30;;;14.30;;
75512;SDS011;64090;49.770;18.760;2023-03-01T15:46:25;24.30;;;13.50;;
75512;SDS011;64090;49.770;18.760;2023-03-01T15:50:15;28.90;;;16.60;;
75512;SDS011;64090;49.770;18.760;2023-03-01T15:53:59;27.50;;;16.40;;
75512;SDS011;64090;49.770;18.760;2023-03-01T15:57:47;24.80;;;15.70;;
75512;SDS011;64090;49.770;18.760;2023-03-01T16:01:40;30.10;;;18.30;;
75512;SDS011;64090;49.770;18.760;2023-03-01T16:05:39;29.90;;;19.50;;
75512;SDS011;64090;49.770;18.760;2023-03-01T16:09:26;28.00;;;18.60;;
75512;SDS011;64090;49.770;18.760;2023-03-01T16:13:16;31.60;;;17.40;;
75512;SDS011;64090;49.770;18.760;2023-03-01T16:16:57;31.50;;;16.90;;
75512;SDS011;64090;49.770;18.760;2023-03-01T16:20:46;26.80;;;17.50;;
75512;SDS011;64090;49.770;18.760;2023-03-01T16:24:45;29.00;;;17.70;;
75512;SDS011;64090;49.770;18.760;2023-03-01T16:28:32;29.40;;;18.40;;
75512;SDS011;64090;49.770;18.760;2023-03-01T16:32:28;30.60;;;17.90;;
75512;SDS011;64090;49.770;18.760;2023-03-01T16:36:16;31.20;;;19.50;;
75512;SDS011;64090;49.770;18.760;2023-03-01T16:39:52;30.10;;;16.60;;
75512;SDS011;64090;49.770;18.760;2023-03-01T16:43:46;32.50;;;20.30;;
75512;SDS011;64090;49.770;18.760;2023-03-01T16:46:50;29.10;;;18.60;;
75512;SDS011;64090;49.770;18.760;2023-03-01T16:49:54;32.80;;;19.10;;
75512;SDS011;64090;49.770;18.760;2023-03-01T16:52:58;33.20;;;18.90;;
75512;SDS011;64090;49.770;18.760;2023-03-01T16:56:01;30.50;;;18.90;;
75512;SDS011;64090;49.770;18.760;2023-03-01T16:59:06;31.70;;;18.90;;
75512;SDS011;64090;49.770;18.760;2023-03-01T17:02:10;44.00;;;24.50;;
75512;SDS011;64090;49.770;18.760;2023-03-01T17:05:15;48.10;;;28.90;;
75512;SDS011;64090;49.770;18.760;2023-03-01T17:08:18;52.20;;;27.10;;
75512;SDS011;64090;49.770;18.760;2023-03-01T17:11:22;77.40;;;39.20;;
75512;SDS011;64090;49.770;18.760;2023-03-01T17:14:26;209.90;;;100.70;;
75512;SDS011;64090;49.770;18.760;2023-03-01T17:17:29;71.90;;;38.30;;
75512;SDS011;64090;49.770;18.760;2023-03-01T17:20:34;59.10;;;34.30;;
75512;SDS011;64090;49.770;18.760;2023-03-01T17:23:38;53.80;;;30.30;;
75512;SDS011;64090;49.770;18.760;2023-03-01T17:27:05;54.40;;;29.30;;
75512;SDS011;64090;49.770;18.760;2023-03-01T17:30:59;57.80;;;32.00;;
75512;SDS011;64090;49.770;18.760;2023-03-01T17:34:47;70.10;;;35.40;;
75512;SDS011;64090;49.770;18.760;2023-03-01T17:38:38;62.50;;;32.10;;
75512;SDS011;64090;49.770;18.760;2023-03-01T17:42:44;59.30;;;29.10;;
75512;SDS011;64090;49.770;18.760;2023-03-01T17:46:44;58.20;;;31.70;;
75512;SDS011;64090;49.770;18.760;2023-03-01T17:50:56;78.20;;;37.40;;
75512;SDS011;64090;49.770;18.760;2023-03-01T17:54:47;70.70;;;34.20;;
75512;SDS011;64090;49.770;18.760;2023-03-01T17:58:39;65.20;;;34.70;;
75512;SDS011;64090;49.770;18.760;2023-03-01T18:03:22;71.50;;;34.80;;
75512;SDS011;64090;49.770;18.760;2023-03-01T18:10:14;79.00;;;38.70;;
75512;SDS011;64090;49.770;18.760;2023-03-01T18:13:17;85.30;;;43.10;;
75512;SDS011;64090;49.770;18.760;2023-03-01T18:16:21;97.30;;;52.90;;
75512;SDS011;64090;49.770;18.760;2023-03-01T18:19:24;72.70;;;37.10;;
75512;SDS011;64090;49.770;18.760;2023-03-01T18:22:30;67.50;;;36.90;;
75512;SDS011;64090;49.770;18.760;2023-03-01T18:25:36;88.00;;;43.50;;
75512;SDS011;64090;49.770;18.760;2023-03-01T18:28:41;101.80;;;51.40;;
75512;SDS011;64090;49.770;18.760;2023-03-01T18:31:44;141.30;;;65.60;;
75512;SDS011;64090;49.770;18.760;2023-03-01T18:34:47;104.80;;;49.50;;
75512;SDS011;64090;49.770;18.760;2023-03-01T18:37:51;116.70;;;47.70;;
75512;SDS011;64090;49.770;18.760;2023-03-01T18:41:17;137.40;;;58.20;;
75512;SDS011;64090;49.770;18.760;2023-03-01T18:45:08;97.70;;;45.60;;
75512;SDS011;64090;49.770;18.760;2023-03-01T18:48:51;88.10;;;40.90;;
75512;SDS011;64090;49.770;18.760;2023-03-01T18:52:29;90.00;;;40.70;;
75512;SDS011;64090;49.770;18.760;2023-03-01T18:56:28;85.50;;;40.50;;
75512;SDS011;64090;49.770;18.760;2023-03-01T18:59:43;80.50;;;35.20;;
75512;SDS011;64090;49.770;18.760;2023-03-01T19:03:26;73.20;;;34.20;;
75512;SDS011;64090;49.770;18.760;2023-03-01T19:07:15;80.40;;;35.40;;
75512;SDS011;64090;49.770;18.760;2023-03-01T19:11:03;69.30;;;35.00;;
75512;SDS011;64090;49.770;18.760;2023-03-01T19:14:37;63.60;;;31.80;;
75512;SDS011;64090;49.770;18.760;2023-03-01T19:18:24;71.60;;;33.90;;
75512;SDS011;64090;49.770;18.760;2023-03-01T19:21:59;73.70;;;36.10;;
75512;SDS011;64090;49.770;18.760;2023-03-01T19:25:36;69.40;;;33.30;;
75512;SDS011;64090;49.770;18.760;2023-03-01T19:29:16;62.90;;;32.70;;
75512;SDS011;64090;49.770;18.760;2023-03-01T19:33:13;75.70;;;33.40;;
75512;SDS011;64090;49.770;18.760;2023-03-01T19:41:09;57.90;;;30.90;;
75512;SDS011;64090;49.770;18.760;2023-03-01T19:57:02;80.50;;;40.00;;
75512;SDS011;64090;49.770;18.760;2023-03-01T20:01:46;77.90;;;42.00;;
75512;SDS011;64090;49.770;18.760;2023-03-01T20:05:42;68.30;;;35.30;;
75512;SDS011;64090;49.770;18.760;2023-03-01T20:16:22;66.40;;;33.40;;
75512;SDS011;64090;49.770;18.760;2023-03-01T20:20:59;63.10;;;31.10;;
75512;SDS011;64090;49.770;18.760;2023-03-01T20:25:21;70.10;;;34.50;;
75512;SDS011;64090;49.770;18.760;2023-03-01T20:33:56;55.20;;;25.50;;
75512;SDS011;64090;49.770;18.760;2023-03-01T20:51:06;83.20;;;40.60;;
75512;SDS011;64090;49.770;18.760;2023-03-01T20:55:03;82.00;;;40.70;;
75512;SDS011;64090;49.770;18.760;2023-03-01T21:11:48;109.10;;;52.40;;
75512;SDS011;64090;49.770;18.760;2023-03-01T21:15:56;90.90;;;43.50;;
75512;SDS011;64090;49.770;18.760;2023-03-01T21:20:12;85.10;;;38.20;;
75512;SDS011;64090;49.770;18.760;2023-03-01T21:24:29;107.10;;;52.20;;
75512;SDS011;64090;49.770;18.760;2023-03-01T21:31:50;84.10;;;42.80;;
75512;SDS011;64090;49.770;18.760;2023-03-01T21:38:54;104.50;;;52.90;;
75512;SDS011;64090;49.770;18.760;2023-03-01T21:42:58;117.80;;;52.50;;
75512;SDS011;64090;49.770;18.760;2023-03-01T21:47:11;132.00;;;63.90;;
75512;SDS011;64090;49.770;18.760;2023-03-01T21:50:58;84.80;;;37.40;;
75512;SDS011;64090;49.770;18.760;2023-03-01T21:58:31;111.20;;;54.70;;
75512;SDS011;64090;49.770;18.760;2023-03-01T22:02:15;100.30;;;50.40;;
75512;SDS011;64090;49.770;18.760;2023-03-01T22:06:08;75.70;;;37.90;;
75512;SDS011;64090;49.770;18.760;2023-03-01T22:12:56;79.10;;;40.40;;
75512;SDS011;64090;49.770;18.760;2023-03-01T22:17:00;51.10;;;20.70;;
75512;SDS011;64090;49.770;18.760;2023-03-01T22:24:59;90.70;;;44.40;;
75512;SDS011;64090;49.770;18.760;2023-03-01T22:29:01;86.30;;;42.70;;
75512;SDS011;64090;49.770;18.760;2023-03-01T22:33:01;77.30;;;38.00;;
75512;SDS011;64090;49.770;18.760;2023-03-01T22:36:48;73.10;;;38.50;;
75512;SDS011;64090;49.770;18.760;2023-03-01T22:40:20;53.90;;;26.50;;
75512;SDS011;64090;49.770;18.760;2023-03-01T22:44:27;98.50;;;45.40;;
75512;SDS011;64090;49.770;18.760;2023-03-01T22:48:23;79.40;;;42.10;;
75512;SDS011;64090;49.770;18.760;2023-03-01T22:52:17;81.90;;;39.60;;
75512;SDS011;64090;49.770;18.760;2023-03-01T22:55:45;71.30;;;34.90;;
75512;SDS011;64090;49.770;18.760;2023-03-01T22:59:32;87.70;;;43.70;;
75512;SDS011;64090;49.770;18.760;2023-03-01T23:03:29;90.90;;;43.80;;
75512;SDS011;64090;49.770;18.760;2023-03-01T23:07:16;102.80;;;48.70;;
75512;SDS011;64090;49.770;18.760;2023-03-01T23:11:13;91.80;;;46.70;;